Miyamaru No.3 — JPQN — position and weather

sailwx.info

Track history (hours):
 
Tides and Currents Weather Stations Pressure Air Temp Water Temp Dewpoint Dewpoint Depression Visibility Wind Speed Wind Dir Waves Ship Positions

Miyamaru No.3

Last reported at 2017-Oct-20 02:40 UTC. Time now 2017-Oct-20 05:08 UTC.
Position N 34°01' E 134°59'.

Length 105 m; draft 6.7 m.

Type: Tanker. MMSI: 431036000.

Date/timePositionNaut miles runAvg speedWind from/ knotsBaromVisibWave heightAir tempDewpointWater temp
2017-Oct-20 02:40N 34°01' E 134°59'212.1
2017-Oct-20 02:28N 34°03' E 134°59'511.7
2017-Oct-20 02:00N 34°09' E 134°58'611.6
2017-Oct-20 01:30N 34°15' E 134°58'710.6
2017-Oct-20 00:50N 34°21' E 135°00'411.1
2017-Oct-20 00:29N 34°24' E 135°03'611.5
2017-Oct-20 00:00N 34°27' E 135°09'610.9
2017-Oct-19 23:30N 34°31' E 135°14'3 5.5
2017-Oct-19 22:58N 34°32' E 135°18'0 0.1
2017-Oct-19 22:28N 34°32' E 135°18'0 0.0
2017-Oct-19 21:58N 34°32' E 135°18'0 0.0
2017-Oct-19 21:28N 34°32' E 135°18'0 0.0
2017-Oct-19 20:58N 34°32' E 135°18'0 0.0
2017-Oct-19 20:28N 34°32' E 135°18'0 0.0
2017-Oct-19 19:58N 34°32' E 135°18'0 0.0
2017-Oct-19 19:28N 34°32' E 135°18'0 0.0
2017-Oct-19 18:58N 34°32' E 135°18'0 0.0
2017-Oct-19 18:28N 34°32' E 135°18'0 0.0
2017-Oct-19 17:58N 34°32' E 135°18'0 0.0
2017-Oct-19 17:04N 34°32' E 135°18'0 0.0
2017-Oct-19 16:52N 34°32' E 135°18'0 0.0
2017-Oct-19 16:16N 34°32' E 135°18'0 0.0
2017-Oct-19 15:52N 34°32' E 135°18'0 0.0
2017-Oct-19 15:10N 34°32' E 135°18'0 0.0
2017-Oct-19 14:58N 34°32' E 135°18'0 0.0
2017-Oct-19 14:28N 34°32' E 135°18'0 0.0
2017-Oct-19 13:52N 34°32' E 135°18'0 0.0
2017-Oct-19 13:22N 34°32' E 135°18'0 0.0
2017-Oct-19 12:58N 34°32' E 135°18'0 1.0
2017-Oct-19 12:30N 34°32' E 135°18'510.3
2017-Oct-19 12:00N 34°36' E 135°22'3 6.8
2017-Oct-19 11:30N 34°35' E 135°26'0 0.0
2017-Oct-19 00:39N 34°35' E 135°26'0 1.0
2017-Oct-19 00:30N 34°35' E 135°26'3 5.8
2017-Oct-19 00:00N 34°36' E 135°23'1 1.6
2017-Oct-18 23:30N 34°36' E 135°22'0 0.1
2017-Oct-18 23:00N 34°36' E 135°22'0 0.1
2017-Oct-18 22:30N 34°36' E 135°22'0 0.0
2017-Oct-18 22:00N 34°36' E 135°22'0 0.0
2017-Oct-18 21:30N 34°36' E 135°22'0 0.0
2017-Oct-18 21:00N 34°36' E 135°22'0 0.0
2017-Oct-18 20:30N 34°36' E 135°22'0 0.0
2017-Oct-18 20:00N 34°36' E 135°22'0 0.0
2017-Oct-18 19:30N 34°36' E 135°22'0 0.0
2017-Oct-18 19:00N 34°36' E 135°22'0 0.0
2017-Oct-18 18:30N 34°36' E 135°22'0 0.1
2017-Oct-18 18:00N 34°36' E 135°22'0 0.1
2017-Oct-18 17:30N 34°36' E 135°22'3 5.5
2017-Oct-18 17:00N 34°36' E 135°25'1 2.4
2017-Oct-18 16:30N 34°35' E 135°26'0 0.0
2017-Oct-18 16:00N 34°35' E 135°26'0 0.0
2017-Oct-18 15:24N 34°35' E 135°26'0 0.0
2017-Oct-18 15:00N 34°35' E 135°26'0 0.0
2017-Oct-18 13:48N 34°35' E 135°26'0 0.0
2017-Oct-18 13:24N 34°35' E 135°26'0 0.0
2017-Oct-18 12:54N 34°35' E 135°26'0 0.0
2017-Oct-18 12:30N 34°35' E 135°26'0 0.0
2017-Oct-18 12:00N 34°35' E 135°26'0 0.0
2017-Oct-18 11:30N 34°35' E 135°26'0 0.0
2017-Oct-18 11:00N 34°35' E 135°26'0 0.0
2017-Oct-18 10:06N 34°35' E 135°26'0 0.0
2017-Oct-18 07:48N 34°35' E 135°26'0 0.0
2017-Oct-18 07:30N 34°35' E 135°26'2 3.9
2017-Oct-18 07:00N 34°36' E 135°24'4 8.8
2017-Oct-18 06:30N 34°34' E 135°19'510.7
2017-Oct-18 06:00N 34°31' E 135°15'610.6
2017-Oct-18 05:29N 34°27' E 135°10'510.4
2017-Oct-18 05:00N 34°23' E 135°06'11 9.2
2017-Oct-18 03:45N 34°13' E 134°59'218 5.3
2017-Oct-16 10:46N 34°51' E 139°20'310.8
2017-Oct-16 10:29N 34°53' E 139°23'510.8
2017-Oct-16 10:00N 34°56' E 139°28'510.9
2017-Oct-16 09:30N 34°59' E 139°33'5 9.8
2017-Oct-16 09:00N 35°03' E 139°37'612.1
2017-Oct-16 08:30N 35°07' E 139°43'713.4
2017-Oct-16 08:00N 35°13' E 139°46'612.5
2017-Oct-16 07:30N 35°19' E 139°43'611.9
2017-Oct-16 07:00N 35°25' E 139°44'713.3
2017-Oct-16 06:30N 35°29' E 139°50'712.9
2017-Oct-16 05:59N 35°32' E 139°57'3 0.1
2017-Oct-15 02:23N 35°32' E 140°01'3 8.9
2017-Oct-15 02:00N 35°32' E 139°57'510.4
2017-Oct-15 01:30N 35°28' E 139°52'510.5
2017-Oct-15 01:00N 35°25' E 139°47'510.8
2017-Oct-15 00:30N 35°20' E 139°44'5 9.9
2017-Oct-15 00:00N 35°15' E 139°47'510.1
2017-Oct-14 23:30N 35°10' E 139°46'5 9.4
2017-Oct-14 23:00N 35°06' E 139°44'510.4
2017-Oct-14 22:30N 35°02' E 139°40'611.0
2017-Oct-14 22:00N 34°59' E 139°34'  
2017-Oct-12 11:33N 34°00' E 134°59'113.1
2017-Oct-12 11:30N 34°01' E 134°59'612.9
2017-Oct-12 11:00N 34°08' E 134°59'713.4
2017-Oct-12 10:30N 34°14' E 134°59'712.9
2017-Oct-12 09:58N 34°21' E 134°60'612.6
2017-Oct-12 09:30N 34°25' E 135°05'713.2
2017-Oct-12 08:59N 34°29' E 135°11'613.0
2017-Oct-12 08:30N 34°33' E 135°17'612.4
2017-Oct-12 08:00N 34°36' E 135°24'2 0.3
2017-Oct-12 00:19N 34°35' E 135°26'0 0.0
2017-Oct-12 00:00N 34°35' E 135°26'0 0.3
2017-Oct-11 23:30N 34°35' E 135°26'3 5.4
2017-Oct-11 23:00N 34°36' E 135°23'4 8.2
2017-Oct-11 22:30N 34°35' E 135°18'0 0.5
2017-Oct-11 22:00N 34°35' E 135°18'0 0.1
2017-Oct-11 21:27N 34°35' E 135°18'1 1.5
2017-Oct-11 21:00N 34°34' E 135°18'510.6
2017-Oct-11 20:30N 34°31' E 135°13'510.8
2017-Oct-11 20:00N 34°27' E 135°09'510.8
2017-Oct-11 19:30N 34°23' E 135°04'710.6
2017-Oct-11 18:52N 34°17' E 134°59'410.1
2017-Oct-11 18:29N 34°13' E 134°60'611.2
2017-Oct-11 17:58N 34°08' E 135°00'219 9.3
2017-Oct-10 18:30N 34°52' E 139°20'5 8.8
2017-Oct-10 17:59N 34°55' E 139°25'510.2
2017-Oct-10 17:30N 34°58' E 139°29'611.0
2017-Oct-10 17:00N 35°02' E 139°35'611.3
2017-Oct-10 16:30N 35°05' E 139°40'611.7
2017-Oct-10 16:00N 35°10' E 139°44'611.9
2017-Oct-10 15:30N 35°15' E 139°46'612.0
2017-Oct-10 15:00N 35°21' E 139°42'20 2.5
2017-Oct-10 06:56N 35°32' E 140°03'1 2.6
2017-Oct-10 06:23N 35°33' E 140°02'0 0.0
2017-Oct-10 05:59N 35°33' E 140°02'  
Track history (hours):
 
Tides and Currents Weather Stations Pressure Air Temp Water Temp Dewpoint Dewpoint Depression Visibility Wind Speed Wind Dir Waves Ship Positions

Miyamaru No.3

Last reported at 2017-Oct-20 02:40 UTC. Time now 2017-Oct-20 05:08 UTC.
Position N 34°01' E 134°59'.

Length 105 m; draft 6.7 m.

Type: Tanker. MMSI: 431036000.

Date/timePositionNaut miles runAvg speedWind from/ knotsBaromVisibWave heightAir tempDewpointWater temp
2017-Oct-20 02:40N 34°01' E 134°59'212.1
2017-Oct-20 02:28N 34°03' E 134°59'511.7
2017-Oct-20 02:00N 34°09' E 134°58'611.6
2017-Oct-20 01:30N 34°15' E 134°58'710.6
2017-Oct-20 00:50N 34°21' E 135°00'411.1
2017-Oct-20 00:29N 34°24' E 135°03'611.5
2017-Oct-20 00:00N 34°27' E 135°09'610.9
2017-Oct-19 23:30N 34°31' E 135°14'3 5.5
2017-Oct-19 22:58N 34°32' E 135°18'0 0.1
2017-Oct-19 22:28N 34°32' E 135°18'0 0.0
2017-Oct-19 21:58N 34°32' E 135°18'0 0.0
2017-Oct-19 21:28N 34°32' E 135°18'0 0.0
2017-Oct-19 20:58N 34°32' E 135°18'0 0.0
2017-Oct-19 20:28N 34°32' E 135°18'0 0.0
2017-Oct-19 19:58N 34°32' E 135°18'0 0.0
2017-Oct-19 19:28N 34°32' E 135°18'0 0.0
2017-Oct-19 18:58N 34°32' E 135°18'0 0.0
2017-Oct-19 18:28N 34°32' E 135°18'0 0.0
2017-Oct-19 17:58N 34°32' E 135°18'0 0.0
2017-Oct-19 17:04N 34°32' E 135°18'0 0.0
2017-Oct-19 16:52N 34°32' E 135°18'0 0.0
2017-Oct-19 16:16N 34°32' E 135°18'0 0.0
2017-Oct-19 15:52N 34°32' E 135°18'0 0.0
2017-Oct-19 15:10N 34°32' E 135°18'0 0.0
2017-Oct-19 14:58N 34°32' E 135°18'0 0.0
2017-Oct-19 14:28N 34°32' E 135°18'0 0.0
2017-Oct-19 13:52N 34°32' E 135°18'0 0.0
2017-Oct-19 13:22N 34°32' E 135°18'0 0.0
2017-Oct-19 12:58N 34°32' E 135°18'0 1.0
2017-Oct-19 12:30N 34°32' E 135°18'510.3
2017-Oct-19 12:00N 34°36' E 135°22'3 6.8
2017-Oct-19 11:30N 34°35' E 135°26'0 0.0
2017-Oct-19 00:39N 34°35' E 135°26'0 1.0
2017-Oct-19 00:30N 34°35' E 135°26'3 5.8
2017-Oct-19 00:00N 34°36' E 135°23'1 1.6
2017-Oct-18 23:30N 34°36' E 135°22'0 0.1
2017-Oct-18 23:00N 34°36' E 135°22'0 0.1
2017-Oct-18 22:30N 34°36' E 135°22'0 0.0
2017-Oct-18 22:00N 34°36' E 135°22'0 0.0
2017-Oct-18 21:30N 34°36' E 135°22'0 0.0
2017-Oct-18 21:00N 34°36' E 135°22'0 0.0
2017-Oct-18 20:30N 34°36' E 135°22'0 0.0
2017-Oct-18 20:00N 34°36' E 135°22'0 0.0
2017-Oct-18 19:30N 34°36' E 135°22'0 0.0
2017-Oct-18 19:00N 34°36' E 135°22'0 0.0
2017-Oct-18 18:30N 34°36' E 135°22'0 0.1
2017-Oct-18 18:00N 34°36' E 135°22'0 0.1
2017-Oct-18 17:30N 34°36' E 135°22'3 5.5
2017-Oct-18 17:00N 34°36' E 135°25'1 2.4
2017-Oct-18 16:30N 34°35' E 135°26'0 0.0
2017-Oct-18 16:00N 34°35' E 135°26'0 0.0
2017-Oct-18 15:24N 34°35' E 135°26'0 0.0
2017-Oct-18 15:00N 34°35' E 135°26'0 0.0
2017-Oct-18 13:48N 34°35' E 135°26'0 0.0
2017-Oct-18 13:24N 34°35' E 135°26'0 0.0
2017-Oct-18 12:54N 34°35' E 135°26'0 0.0
2017-Oct-18 12:30N 34°35' E 135°26'0 0.0
2017-Oct-18 12:00N 34°35' E 135°26'0 0.0
2017-Oct-18 11:30N 34°35' E 135°26'0 0.0
2017-Oct-18 11:00N 34°35' E 135°26'0 0.0
2017-Oct-18 10:06N 34°35' E 135°26'0 0.0
2017-Oct-18 07:48N 34°35' E 135°26'0 0.0
2017-Oct-18 07:30N 34°35' E 135°26'2 3.9
2017-Oct-18 07:00N 34°36' E 135°24'4 8.8
2017-Oct-18 06:30N 34°34' E 135°19'510.7
2017-Oct-18 06:00N 34°31' E 135°15'610.6
2017-Oct-18 05:29N 34°27' E 135°10'510.4
2017-Oct-18 05:00N 34°23' E 135°06'11 9.2
2017-Oct-18 03:45N 34°13' E 134°59'218 5.3
2017-Oct-16 10:46N 34°51' E 139°20'310.8
2017-Oct-16 10:29N 34°53' E 139°23'510.8
2017-Oct-16 10:00N 34°56' E 139°28'510.9
2017-Oct-16 09:30N 34°59' E 139°33'5 9.8
2017-Oct-16 09:00N 35°03' E 139°37'612.1
2017-Oct-16 08:30N 35°07' E 139°43'713.4
2017-Oct-16 08:00N 35°13' E 139°46'612.5
2017-Oct-16 07:30N 35°19' E 139°43'611.9
2017-Oct-16 07:00N 35°25' E 139°44'713.3
2017-Oct-16 06:30N 35°29' E 139°50'712.9
2017-Oct-16 05:59N 35°32' E 139°57'3 0.1
2017-Oct-15 02:23N 35°32' E 140°01'3 8.9
2017-Oct-15 02:00N 35°32' E 139°57'510.4
2017-Oct-15 01:30N 35°28' E 139°52'510.5
2017-Oct-15 01:00N 35°25' E 139°47'510.8
2017-Oct-15 00:30N 35°20' E 139°44'5 9.9
2017-Oct-15 00:00N 35°15' E 139°47'510.1
2017-Oct-14 23:30N 35°10' E 139°46'5 9.4
2017-Oct-14 23:00N 35°06' E 139°44'510.4
2017-Oct-14 22:30N 35°02' E 139°40'611.0
2017-Oct-14 22:00N 34°59' E 139°34'  
2017-Oct-12 11:33N 34°00' E 134°59'113.1
2017-Oct-12 11:30N 34°01' E 134°59'612.9
2017-Oct-12 11:00N 34°08' E 134°59'713.4
2017-Oct-12 10:30N 34°14' E 134°59'712.9
2017-Oct-12 09:58N 34°21' E 134°60'612.6
2017-Oct-12 09:30N 34°25' E 135°05'713.2
2017-Oct-12 08:59N 34°29' E 135°11'613.0
2017-Oct-12 08:30N 34°33' E 135°17'612.4
2017-Oct-12 08:00N 34°36' E 135°24'2 0.3
2017-Oct-12 00:19N 34°35' E 135°26'0 0.0
2017-Oct-12 00:00N 34°35' E 135°26'0 0.3
2017-Oct-11 23:30N 34°35' E 135°26'3 5.4
2017-Oct-11 23:00N 34°36' E 135°23'4 8.2
2017-Oct-11 22:30N 34°35' E 135°18'0 0.5
2017-Oct-11 22:00N 34°35' E 135°18'0 0.1
2017-Oct-11 21:27N 34°35' E 135°18'1 1.5
2017-Oct-11 21:00N 34°34' E 135°18'510.6
2017-Oct-11 20:30N 34°31' E 135°13'510.8
2017-Oct-11 20:00N 34°27' E 135°09'510.8
2017-Oct-11 19:30N 34°23' E 135°04'710.6
2017-Oct-11 18:52N 34°17' E 134°59'410.1
2017-Oct-11 18:29N 34°13' E 134°60'611.2
2017-Oct-11 17:58N 34°08' E 135°00'219 9.3
2017-Oct-10 18:30N 34°52' E 139°20'5 8.8
2017-Oct-10 17:59N 34°55' E 139°25'510.2
2017-Oct-10 17:30N 34°58' E 139°29'611.0
2017-Oct-10 17:00N 35°02' E 139°35'611.3
2017-Oct-10 16:30N 35°05' E 139°40'611.7
2017-Oct-10 16:00N 35°10' E 139°44'611.9
2017-Oct-10 15:30N 35°15' E 139°46'612.0
2017-Oct-10 15:00N 35°21' E 139°42'20 2.5
2017-Oct-10 06:56N 35°32' E 140°03'1 2.6
2017-Oct-10 06:23N 35°33' E 140°02'0 0.0
2017-Oct-10 05:59N 35°33' E 140°02'  

Dump ship's entire track history